createdAt,value
2023-04-25T00:00:31.667Z,2.30
2023-04-25T00:03:00.351Z,3.27
2023-04-25T00:05:30.507Z,1.80
2023-04-25T00:07:59.673Z,2.60
2023-04-25T00:10:27.980Z,1.70
2023-04-25T00:12:56.182Z,3.10
2023-04-25T00:15:25.268Z,2.03
2023-04-25T00:17:54.820Z,2.40
2023-04-25T00:20:24.436Z,2.10
2023-04-25T00:22:53.637Z,4.17
2023-04-25T00:25:22.026Z,2.53
2023-04-25T00:27:50.154Z,2.10
2023-04-25T00:30:18.550Z,2.40
2023-04-25T00:32:46.968Z,2.27
2023-04-25T00:35:16.582Z,2.63
2023-04-25T00:37:44.662Z,2.07
2023-04-25T00:40:13.251Z,2.93
2023-04-25T00:42:42.595Z,2.70
2023-04-25T00:45:15.676Z,1.87
2023-04-25T00:47:44.210Z,3.50
2023-04-25T00:50:13.350Z,4.57
2023-04-25T00:52:46.345Z,2.03
2023-04-25T00:55:16.658Z,2.90
2023-04-25T00:57:45.289Z,1.30
2023-04-25T01:00:14.427Z,1.80
2023-04-25T01:02:43.014Z,3.30
2023-04-25T01:05:11.652Z,3.47
2023-04-25T01:07:40.117Z,2.20
2023-04-25T01:10:11.154Z,2.07
2023-04-25T01:12:39.857Z,2.27
2023-04-25T01:15:09.069Z,1.93
2023-04-25T01:17:37.921Z,2.10
2023-04-25T01:20:10.460Z,2.37
2023-04-25T01:22:40.033Z,3.23
2023-04-25T01:25:10.156Z,3.63
2023-04-25T01:27:38.896Z,2.10
2023-04-25T01:30:09.579Z,1.93
2023-04-25T01:32:40.089Z,3.10
2023-04-25T01:35:10.676Z,3.47
2023-04-25T01:37:40.576Z,3.27
2023-04-25T01:40:11.519Z,1.57
2023-04-25T01:42:42.397Z,4.90
2023-04-25T01:45:12.648Z,2.20
2023-04-25T01:47:42.565Z,1.67
2023-04-25T01:50:12.195Z,1.80
2023-04-25T01:52:41.950Z,3.50
2023-04-25T01:55:11.420Z,1.73
2023-04-25T01:57:39.596Z,1.80
2023-04-25T02:00:10.007Z,2.50
2023-04-25T02:02:38.443Z,1.60
2023-04-25T02:05:08.332Z,1.53
2023-04-25T02:07:36.436Z,2.03
2023-04-25T02:10:07.344Z,1.63
2023-04-25T02:12:35.585Z,1.53
2023-04-25T02:15:04.330Z,2.33
2023-04-25T02:17:32.768Z,1.70
2023-04-25T02:20:01.026Z,2.17
2023-04-25T02:22:31.294Z,1.60
2023-04-25T02:24:59.430Z,2.60
2023-04-25T02:27:28.917Z,5.40
2023-04-25T02:29:57.154Z,2.87
2023-04-25T02:32:25.874Z,3.67
2023-04-25T02:34:54.011Z,1.93
2023-04-25T02:37:22.361Z,2.10
2023-04-25T02:39:50.485Z,1.40
2023-04-25T02:42:18.873Z,3.13
2023-04-25T02:44:48.313Z,3.97
2023-04-25T02:47:16.474Z,1.70
2023-04-25T02:49:44.722Z,5.47
2023-04-25T02:52:13.233Z,1.73
2023-04-25T02:54:42.835Z,4.33
2023-04-25T02:57:11.152Z,3.07
2023-04-25T02:59:39.195Z,4.80
2023-04-25T03:02:08.688Z,1.43
2023-04-25T03:04:36.950Z,2.47
2023-04-25T03:07:05.101Z,1.53
2023-04-25T03:09:33.518Z,2.00
2023-04-25T03:12:02.474Z,5.30
2023-04-25T03:14:30.652Z,2.53
2023-04-25T03:16:58.907Z,1.27
2023-04-25T03:19:28.582Z,3.17
2023-04-25T03:21:56.670Z,1.30
2023-04-25T03:24:24.836Z,2.67
2023-04-25T03:26:52.922Z,2.80
2023-04-25T03:29:25.294Z,2.70
2023-04-25T03:31:53.506Z,4.20
2023-04-25T03:34:22.310Z,2.07
2023-04-25T03:36:51.836Z,1.30
2023-04-25T03:39:19.994Z,1.60
2023-04-25T03:41:48.099Z,2.50
2023-04-25T03:44:16.444Z,4.43
2023-04-25T03:46:44.693Z,4.13
2023-04-25T03:49:12.830Z,2.07
2023-04-25T03:51:41.078Z,3.40
2023-04-25T03:54:10.553Z,2.90
2023-04-25T03:56:38.642Z,2.30
2023-04-25T03:59:06.946Z,1.40
2023-04-25T04:01:35.136Z,4.93
2023-04-25T04:04:03.666Z,1.93
2023-04-25T04:06:32.084Z,2.23
2023-04-25T04:09:00.303Z,1.77
2023-04-25T04:11:30.011Z,6.33
2023-04-25T04:13:58.375Z,1.70
2023-04-25T04:16:27.439Z,1.97
2023-04-25T04:18:55.899Z,2.27
2023-04-25T04:21:27.755Z,2.57
2023-04-25T04:23:56.327Z,2.43
2023-04-25T04:26:25.001Z,1.50
2023-04-25T04:28:56.589Z,1.60
2023-04-25T04:31:25.156Z,5.40
2023-04-25T04:33:59.417Z,1.47
2023-04-25T04:36:27.684Z,3.60
2023-04-25T04:38:57.293Z,1.80
2023-04-25T04:41:25.397Z,2.77
2023-04-25T04:43:56.996Z,3.40
2023-04-25T04:46:25.614Z,2.53
2023-04-25T04:48:57.341Z,4.67
2023-04-25T04:51:25.650Z,3.40
2023-04-25T04:53:53.927Z,2.70
2023-04-25T04:56:24.613Z,4.00
2023-04-25T04:58:54.376Z,9.00
2023-04-25T05:01:23.056Z,2.23
2023-04-25T05:03:52.436Z,2.90
2023-04-25T05:06:21.445Z,6.97
2023-04-25T05:08:50.025Z,18.60
2023-04-25T05:11:18.154Z,18.13
2023-04-25T05:13:46.581Z,15.17
2023-04-25T05:16:16.213Z,14.03
2023-04-25T05:18:44.759Z,20.13
2023-04-25T05:21:12.836Z,7.20
2023-04-25T05:23:41.039Z,11.50
2023-04-25T05:26:14.391Z,16.97
2023-04-25T05:28:43.069Z,11.47
2023-04-25T05:31:12.322Z,13.10
2023-04-25T05:33:41.941Z,9.67
2023-04-25T05:36:10.857Z,4.70
2023-04-25T05:38:39.178Z,7.47
2023-04-25T05:41:08.325Z,11.27
2023-04-25T05:43:36.564Z,12.93
2023-04-25T05:46:04.986Z,9.60
2023-04-25T05:48:33.159Z,6.03
2023-04-25T05:51:02.525Z,5.83
2023-04-25T05:53:30.518Z,11.23
2023-04-25T05:55:58.757Z,14.40
2023-04-25T05:58:26.946Z,7.90
2023-04-25T06:00:55.545Z,6.10
2023-04-25T06:03:24.200Z,10.07
2023-04-25T06:05:52.490Z,5.97
2023-04-25T06:08:22.073Z,7.50
2023-04-25T06:10:50.146Z,11.67
2023-04-25T06:13:18.380Z,6.93
2023-04-25T06:15:46.803Z,3.77
2023-04-25T06:18:15.264Z,6.67
2023-04-25T06:20:43.513Z,6.60
2023-04-25T06:23:11.770Z,6.50
2023-04-25T06:25:41.361Z,4.17
2023-04-25T06:28:09.549Z,4.47
2023-04-25T06:30:37.696Z,7.83
2023-04-25T06:33:06.232Z,11.17
2023-04-25T06:35:37.103Z,3.53
2023-04-25T06:38:05.289Z,6.50
2023-04-25T06:40:33.471Z,7.63
2023-04-25T06:43:03.136Z,3.47
2023-04-25T06:45:31.206Z,4.43
2023-04-25T06:47:59.261Z,6.10
2023-04-25T06:50:40.648Z,6.00
2023-04-25T06:53:33.868Z,3.80
2023-04-25T06:56:02.178Z,7.33
2023-04-25T06:58:44.361Z,6.60
2023-04-25T07:01:12.370Z,6.13
2023-04-25T07:03:40.656Z,6.10
2023-04-25T07:06:09.222Z,6.20
2023-04-25T07:08:37.265Z,19.50
2023-04-25T07:11:05.848Z,8.90
2023-04-25T07:13:35.300Z,13.00
2023-04-25T07:16:04.115Z,8.10
2023-04-25T07:18:32.078Z,5.70
2023-04-25T07:21:00.190Z,7.43
2023-04-25T07:23:28.318Z,9.37
2023-04-25T07:25:56.761Z,8.47
2023-04-25T07:28:24.792Z,4.80
2023-04-25T07:30:54.141Z,6.57
2023-04-25T07:33:22.382Z,5.97
2023-04-25T07:35:51.053Z,4.93
2023-04-25T07:38:19.104Z,8.40
2023-04-25T07:40:47.066Z,8.83
2023-04-25T07:43:17.518Z,12.50
2023-04-25T07:45:45.807Z,9.83
2023-04-25T07:48:19.236Z,9.67
2023-04-25T07:50:47.326Z,5.47
2023-04-25T07:53:15.462Z,6.93
2023-04-25T07:55:43.475Z,8.33
2023-04-25T07:58:13.018Z,4.67
2023-04-25T08:00:41.090Z,3.67
2023-04-25T08:03:09.217Z,9.33
2023-04-25T08:05:38.746Z,10.97
2023-04-25T08:08:07.551Z,6.10
2023-04-25T08:10:36.011Z,6.93
2023-04-25T08:13:04.067Z,6.47
2023-04-25T08:15:32.139Z,7.63
2023-04-25T08:18:00.517Z,10.37
2023-04-25T08:20:28.564Z,6.90
2023-04-25T08:22:58.292Z,6.20
2023-04-25T08:25:26.279Z,8.00
2023-04-25T08:27:54.271Z,5.37
2023-04-25T08:30:22.822Z,7.10
2023-04-25T08:32:50.963Z,9.00
2023-04-25T08:35:19.176Z,3.93
2023-04-25T08:37:47.809Z,6.53
2023-04-25T08:40:17.875Z,4.37
2023-04-25T08:42:46.265Z,4.53
2023-04-25T08:45:14.310Z,3.50
2023-04-25T08:47:42.784Z,7.60
2023-04-25T08:50:11.100Z,6.40
2023-04-25T08:52:46.367Z,5.67
2023-04-25T08:55:18.283Z,7.13
2023-04-25T08:57:47.114Z,4.43
2023-04-25T09:00:16.493Z,6.47
2023-04-25T09:02:45.500Z,10.20
2023-04-25T09:05:15.194Z,6.10
2023-04-25T09:07:43.323Z,5.30
2023-04-25T09:10:11.931Z,7.80
2023-04-25T09:12:41.721Z,9.40
2023-04-25T09:15:12.361Z,11.57
2023-04-25T09:17:45.316Z,14.83
2023-04-25T09:20:16.070Z,6.83
2023-04-25T09:22:44.195Z,7.10
2023-04-25T09:25:15.480Z,7.63
2023-04-25T09:27:55.284Z,6.70
2023-04-25T09:30:32.420Z,3.77
2023-04-25T09:33:07.666Z,8.00
2023-04-25T09:35:40.349Z,7.90
2023-04-25T09:38:14.854Z,6.20
2023-04-25T09:40:46.014Z,6.13
2023-04-25T09:43:22.762Z,8.97
2023-04-25T09:45:52.764Z,5.30
2023-04-25T09:48:21.969Z,5.30
2023-04-25T09:51:10.006Z,8.70
2023-04-25T09:53:40.312Z,4.80
2023-04-25T09:56:10.645Z,6.70
2023-04-25T09:58:42.501Z,9.10
2023-04-25T10:01:12.537Z,8.17
2023-04-25T10:03:42.748Z,4.07
2023-04-25T10:06:16.695Z,3.90
2023-04-25T10:08:46.596Z,6.47
2023-04-25T10:11:16.897Z,6.17
2023-04-25T10:13:48.875Z,4.07
2023-04-25T10:16:18.101Z,6.23
2023-04-25T10:18:46.108Z,5.57
2023-04-25T10:21:16.323Z,5.37
2023-04-25T10:23:46.287Z,6.60
2023-04-25T10:26:15.330Z,5.50
2023-04-25T10:28:59.707Z,6.30
2023-04-25T10:31:27.927Z,5.00
2023-04-25T10:33:56.290Z,4.50
2023-04-25T10:36:26.425Z,2.87
2023-04-25T10:38:55.481Z,3.20
2023-04-25T10:41:24.606Z,3.93
2023-04-25T10:44:03.342Z,4.43
2023-04-25T10:46:32.204Z,4.83
2023-04-25T10:49:02.894Z,4.80
2023-04-25T10:51:47.238Z,5.37
2023-04-25T10:54:21.277Z,6.33
2023-04-25T10:56:51.106Z,4.37
2023-04-25T10:59:22.434Z,5.80
2023-04-25T11:01:55.611Z,5.60
2023-04-25T11:04:26.426Z,4.80
2023-04-25T11:07:10.015Z,3.53
2023-04-25T11:09:41.321Z,7.43
2023-04-25T11:12:12.690Z,16.83
2023-04-25T11:14:42.493Z,5.97
2023-04-25T11:17:11.572Z,5.30
2023-04-25T11:19:39.707Z,4.60
2023-04-25T11:22:08.755Z,5.40
2023-04-25T11:24:38.280Z,3.47
2023-04-25T11:27:07.612Z,3.53
2023-04-25T11:29:37.019Z,8.83
2023-04-25T11:32:06.924Z,3.10
2023-04-25T11:34:36.198Z,3.73
2023-04-25T11:37:05.144Z,6.20
2023-04-25T11:39:33.328Z,5.93
2023-04-25T11:42:02.316Z,5.20
2023-04-25T11:44:32.586Z,4.50
2023-04-25T11:47:00.834Z,2.87
2023-04-25T11:49:34.067Z,2.47
2023-04-25T11:52:02.063Z,2.73
2023-04-25T11:54:30.196Z,3.83
2023-04-25T11:56:58.609Z,3.20
2023-04-25T11:59:28.757Z,3.27
2023-04-25T12:01:58.587Z,5.80
2023-04-25T12:04:27.506Z,3.33
2023-04-25T12:06:58.011Z,4.07
2023-04-25T12:09:31.885Z,4.60
2023-04-25T12:12:04.133Z,2.87
2023-04-25T12:14:34.905Z,5.27
2023-04-25T12:17:08.498Z,2.43
2023-04-25T12:19:40.890Z,4.90
2023-04-25T12:22:23.543Z,2.30
2023-04-25T12:24:54.112Z,3.13
2023-04-25T12:27:22.141Z,4.77
2023-04-25T12:29:54.519Z,6.73
2023-04-25T12:32:22.492Z,3.50
2023-04-25T12:34:50.546Z,5.47
2023-04-25T12:37:19.881Z,3.57
2023-04-25T12:39:47.837Z,4.87
2023-04-25T12:42:15.804Z,3.37
2023-04-25T12:44:43.788Z,4.50
2023-04-25T12:47:11.809Z,3.17
2023-04-25T12:49:39.969Z,2.40
2023-04-25T12:52:07.988Z,2.97
2023-04-25T12:54:37.331Z,5.23
2023-04-25T12:57:05.672Z,4.80
2023-04-25T12:59:33.679Z,3.80
2023-04-25T13:02:01.846Z,4.85
2023-04-25T13:04:30.133Z,3.93
2023-04-25T13:06:58.220Z,5.10
2023-04-25T13:09:26.236Z,3.63
2023-04-25T13:11:57.268Z,2.80
2023-04-25T13:14:27.224Z,6.20
2023-04-25T13:16:55.855Z,5.40
2023-04-25T13:19:23.987Z,5.83
2023-04-25T13:21:52.063Z,6.13
2023-04-25T13:24:20.110Z,2.90
2023-04-25T13:26:48.153Z,3.70
2023-04-25T13:29:17.471Z,3.97
2023-04-25T13:31:45.482Z,4.53
2023-04-25T13:34:13.980Z,6.70
2023-04-25T13:36:41.982Z,3.40
2023-04-25T13:39:09.986Z,3.80
2023-04-25T13:41:38.146Z,4.30
2023-04-25T13:44:06.410Z,3.50
2023-04-25T13:46:46.550Z,3.60
2023-04-25T13:49:16.336Z,5.53
2023-04-25T13:51:44.586Z,5.87
2023-04-25T13:54:12.718Z,3.20
2023-04-25T13:56:42.999Z,4.00
2023-04-25T13:59:11.312Z,2.77
2023-04-25T14:01:40.884Z,9.30
2023-04-25T14:04:09.041Z,5.47
2023-04-25T14:06:37.558Z,9.10
2023-04-25T14:09:07.683Z,4.93
2023-04-25T14:11:35.838Z,4.87
2023-04-25T14:14:03.999Z,5.20
2023-04-25T14:16:32.986Z,5.93
2023-04-25T14:19:02.805Z,3.80
2023-04-25T14:21:33.344Z,3.97
2023-04-25T14:24:01.777Z,5.10
2023-04-25T14:26:29.898Z,6.27
2023-04-25T14:28:57.894Z,4.80
2023-04-25T14:31:25.975Z,9.53
2023-04-25T14:33:55.764Z,5.47
2023-04-25T14:36:27.327Z,6.93
2023-04-25T14:38:55.346Z,4.77
2023-04-25T14:41:24.017Z,12.73
2023-04-25T14:43:52.437Z,6.43
2023-04-25T14:46:21.464Z,5.70
2023-04-25T14:48:49.599Z,8.73
2023-04-25T14:51:17.754Z,4.30
2023-04-25T14:53:47.135Z,6.80
2023-04-25T14:56:15.261Z,6.57
2023-04-25T14:58:43.285Z,5.73
2023-04-25T15:01:12.250Z,4.20
2023-04-25T15:03:40.705Z,3.80
2023-04-25T15:06:09.076Z,5.43
2023-04-25T15:08:37.224Z,4.30
2023-04-25T15:11:06.685Z,3.10
2023-04-25T15:13:35.770Z,5.43
2023-04-25T15:16:03.916Z,4.67
2023-04-25T15:18:32.068Z,6.37
2023-04-25T15:21:00.221Z,4.83
2023-04-25T15:23:29.737Z,5.80
2023-04-25T15:25:58.118Z,3.57
2023-04-25T15:28:27.494Z,4.53
2023-04-25T15:30:56.076Z,4.03
2023-04-25T15:33:24.030Z,5.30
2023-04-25T15:35:52.061Z,3.30
2023-04-25T15:38:20.024Z,2.70
2023-04-25T15:40:48.004Z,4.80
2023-04-25T15:43:17.244Z,3.53
2023-04-25T15:45:46.563Z,4.53
2023-04-25T15:48:14.670Z,2.40
2023-04-25T15:50:43.292Z,3.87
2023-04-25T15:53:11.604Z,4.17
2023-04-25T15:55:39.660Z,2.20
2023-04-25T15:58:08.179Z,5.40
2023-04-25T16:00:37.729Z,3.53
2023-04-25T16:03:07.522Z,5.40
2023-04-25T16:05:35.970Z,2.97
2023-04-25T16:08:05.310Z,4.33
2023-04-25T16:10:34.287Z,4.20
2023-04-25T16:13:02.362Z,5.73
2023-04-25T16:15:32.224Z,2.83
2023-04-25T16:18:01.150Z,2.97
2023-04-25T16:20:30.602Z,3.93
2023-04-25T16:22:58.646Z,2.47
2023-04-25T16:25:27.098Z,4.50
2023-04-25T16:27:55.109Z,5.17
2023-04-25T16:30:23.280Z,2.23
2023-04-25T16:32:51.293Z,3.43
2023-04-25T16:35:19.635Z,4.97
2023-04-25T16:37:49.028Z,2.63
2023-04-25T16:40:17.321Z,2.93
2023-04-25T16:42:45.340Z,1.80
2023-04-25T16:45:16.751Z,5.07
2023-04-25T16:47:44.949Z,3.00
2023-04-25T16:50:15.290Z,2.60
2023-04-25T16:52:44.614Z,1.80
2023-04-25T16:55:14.099Z,5.57
2023-04-25T16:57:42.149Z,4.50
2023-04-25T17:00:13.407Z,22.20
2023-04-25T17:02:41.583Z,11.73
2023-04-25T17:05:10.471Z,30.73
2023-04-25T17:07:38.700Z,26.90
2023-04-25T17:10:09.056Z,18.80
2023-04-25T17:12:38.377Z,11.97
2023-04-25T17:15:08.227Z,9.30
2023-04-25T17:17:36.225Z,8.53
2023-04-25T17:20:06.840Z,7.70
2023-04-25T17:22:35.984Z,7.03
2023-04-25T17:25:04.403Z,5.37
2023-04-25T17:27:32.899Z,6.57
2023-04-25T17:30:03.822Z,3.93
2023-04-25T17:32:31.884Z,4.70
2023-04-25T17:35:00.231Z,4.90
2023-04-25T17:37:28.628Z,4.57
2023-04-25T17:39:57.292Z,3.10
2023-04-25T17:42:25.431Z,3.67
2023-04-25T17:44:55.382Z,5.30
2023-04-25T17:47:24.845Z,3.13
2023-04-25T17:49:52.913Z,8.67
2023-04-25T17:52:21.921Z,5.20
2023-04-25T17:54:49.937Z,8.23
2023-04-25T17:57:18.068Z,8.60
2023-04-25T17:59:46.378Z,9.13
2023-04-25T18:02:14.793Z,8.23
2023-04-25T18:04:44.738Z,6.50
2023-04-25T18:07:15.684Z,6.20
2023-04-25T18:09:46.598Z,7.03
2023-04-25T18:12:15.191Z,10.07
2023-04-25T18:14:43.665Z,7.27
2023-04-25T18:17:12.370Z,5.77
2023-04-25T18:19:43.662Z,10.57
2023-04-25T18:22:13.233Z,6.23
2023-04-25T18:24:41.471Z,5.53
2023-04-25T18:27:16.169Z,9.73
2023-04-25T18:29:45.521Z,8.63
2023-04-25T18:32:14.341Z,6.73
2023-04-25T18:34:43.911Z,6.00
2023-04-25T18:37:14.273Z,5.90
2023-04-25T18:39:48.262Z,6.13
2023-04-25T18:42:16.968Z,7.20
2023-04-25T18:44:46.403Z,7.50
2023-04-25T18:47:20.463Z,6.20
2023-04-25T18:49:50.699Z,10.70
2023-04-25T18:52:20.266Z,7.57
2023-04-25T18:54:51.234Z,6.37
2023-04-25T18:57:19.421Z,5.97
2023-04-25T18:59:47.867Z,6.17
2023-04-25T19:02:16.827Z,5.45
2023-04-25T19:04:45.167Z,6.30
2023-04-25T19:07:14.678Z,5.93
2023-04-25T19:09:43.987Z,7.50
2023-04-25T19:12:12.001Z,7.83
2023-04-25T19:14:40.053Z,6.60
2023-04-25T19:17:08.198Z,7.03
2023-04-25T19:19:36.328Z,5.20
2023-04-25T19:22:04.409Z,6.60
2023-04-25T19:24:34.363Z,6.20
2023-04-25T19:27:03.993Z,4.07
2023-04-25T19:29:33.904Z,6.27
2023-04-25T19:32:03.250Z,4.60
2023-04-25T19:34:31.176Z,6.30
2023-04-25T19:36:59.135Z,6.80
2023-04-25T19:39:27.116Z,4.37
2023-04-25T19:41:57.044Z,5.90
2023-04-25T19:44:27.609Z,5.97
2023-04-25T19:46:55.580Z,5.87
2023-04-25T19:49:23.581Z,4.97
2023-04-25T19:51:51.772Z,4.67
2023-04-25T19:54:21.115Z,9.73
2023-04-25T19:56:50.798Z,7.10
2023-04-25T19:59:18.791Z,8.80
2023-04-25T20:01:48.212Z,6.47
2023-04-25T20:04:18.172Z,4.03
2023-04-25T20:06:46.247Z,5.47
2023-04-25T20:09:14.222Z,4.67
2023-04-25T20:11:42.350Z,8.40
2023-04-25T20:14:10.386Z,4.57
2023-04-25T20:16:38.494Z,7.60
2023-04-25T20:19:07.901Z,8.83
2023-04-25T20:21:35.948Z,4.60
2023-04-25T20:24:04.640Z,5.03
2023-04-25T20:26:33.806Z,7.80
2023-04-25T20:29:02.024Z,6.10
2023-04-25T20:31:31.613Z,8.30
2023-04-25T20:34:00.838Z,5.17
2023-04-25T20:36:31.729Z,5.90
2023-04-25T20:38:59.891Z,4.23
2023-04-25T20:41:28.062Z,6.33
2023-04-25T20:43:56.887Z,8.20
2023-04-25T20:46:25.324Z,6.27
2023-04-25T20:48:53.738Z,7.00
2023-04-25T20:51:22.853Z,13.30
2023-04-25T20:53:52.261Z,4.40
2023-04-25T20:56:20.734Z,4.83
2023-04-25T20:58:48.734Z,14.23
2023-04-25T21:01:16.904Z,9.50
2023-04-25T21:03:45.510Z,4.10
2023-04-25T21:06:13.733Z,6.60
2023-04-25T21:08:41.752Z,5.80
2023-04-25T21:11:12.645Z,5.83
2023-04-25T21:13:40.608Z,5.70
2023-04-25T21:16:08.674Z,4.03
2023-04-25T21:18:38.034Z,4.67
2023-04-25T21:21:06.182Z,5.30
2023-04-25T21:23:34.670Z,5.77
2023-04-25T21:26:02.753Z,5.60
2023-04-25T21:28:32.068Z,7.00
2023-04-25T21:31:00.261Z,5.93
2023-04-25T21:33:28.440Z,5.17
2023-04-25T21:35:56.436Z,4.63
2023-04-25T21:38:24.552Z,4.00
2023-04-25T21:40:52.610Z,3.10
2023-04-25T21:43:21.426Z,6.10
2023-04-25T21:46:14.757Z,6.30
2023-04-25T21:48:38.846Z,8.87
2023-04-25T21:51:07.242Z,7.70
2023-04-25T21:53:35.271Z,4.73
2023-04-25T21:56:03.285Z,6.13
2023-04-25T21:58:31.279Z,4.53
2023-04-25T22:01:01.679Z,7.60
2023-04-25T22:03:29.755Z,4.90
2023-04-25T22:05:58.005Z,3.43
2023-04-25T22:08:26.077Z,4.87
2023-04-25T22:10:55.351Z,3.60
2023-04-25T22:13:23.548Z,4.40
2023-04-25T22:15:53.873Z,5.07
2023-04-25T22:18:23.191Z,5.07
2023-04-25T22:20:51.273Z,3.57
2023-04-25T22:23:19.256Z,4.93
2023-04-25T22:25:47.397Z,4.13
2023-04-25T22:28:15.456Z,6.10
2023-04-25T22:30:43.900Z,3.03
2023-04-25T22:33:11.944Z,2.50
2023-04-25T22:35:41.295Z,4.80
2023-04-25T22:38:09.612Z,4.60
2023-04-25T22:40:37.800Z,4.50
2023-04-25T22:43:06.337Z,3.77
2023-04-25T22:45:35.740Z,5.70
2023-04-25T22:48:03.848Z,1.80
2023-04-25T22:50:31.876Z,2.93
2023-04-25T22:53:01.545Z,2.93
2023-04-25T22:55:29.575Z,4.50
2023-04-25T22:57:57.911Z,3.20
2023-04-25T23:00:28.946Z,2.60
2023-04-25T23:02:58.210Z,4.70
2023-04-25T23:05:26.405Z,4.17
2023-04-25T23:07:54.634Z,2.40
2023-04-25T23:10:24.461Z,3.80
2023-04-25T23:12:53.578Z,7.47
2023-04-25T23:15:21.619Z,3.50
2023-04-25T23:17:49.669Z,3.13
2023-04-25T23:20:18.011Z,3.60
2023-04-25T23:22:46.037Z,4.30
2023-04-25T23:25:14.794Z,3.20
2023-04-25T23:27:44.968Z,2.60
2023-04-25T23:30:13.968Z,3.17
2023-04-25T23:32:42.959Z,4.83
2023-04-25T23:35:11.758Z,3.53
2023-04-25T23:37:41.280Z,3.50
2023-04-25T23:40:12.180Z,4.07
2023-04-25T23:42:42.998Z,3.97
2023-04-25T23:45:12.438Z,3.00
2023-04-25T23:47:40.634Z,2.97
2023-04-25T23:50:10.111Z,4.67
2023-04-25T23:52:38.328Z,2.53
2023-04-25T23:55:07.736Z,4.40
2023-04-25T23:57:36.205Z,5.03
